Time;durP1;ratioP1;P1;durP2;ratioP2;P2;SDS_P1;SDS_P2;PMS_P1;PMS_P2;Temp;Humidity;BMP_temperature;BMP_pressure;BME280_temperature;BME280_humidity;BME280_pressure;Samples;Min_cycle;Max_cycle;Signal;HPM_P1;HPM_P2
2020/12/16 00:00:52;;;;;;;43.53;20.48;;;6.30;99.90;;;;;;4988150;28;20072;-67
2020/12/16 00:03:19;;;;;;;46.28;21.65;;;6.20;99.90;;;;;;4989492;28;20061;-67
2020/12/16 00:05:46;;;;;;;45.10;20.67;;;6.30;99.90;;;;;;4989433;28;20112;-67
2020/12/16 00:08:13;;;;;;;44.15;21.05;;;6.30;99.90;;;;;;4989464;28;20084;-67
2020/12/16 00:10:41;;;;;;;49.45;21.73;;;6.30;99.90;;;;;;4987834;28;20514;-66
2020/12/16 00:13:10;;;;;;;41.78;21.15;;;6.30;99.90;;;;;;4987960;28;20054;-64
2020/12/16 00:15:37;;;;;;;47.10;21.88;;;6.30;99.90;;;;;;4987805;28;20515;-68
2020/12/16 00:18:07;;;;;;;46.10;22.80;;;6.20;99.90;;;;;;4988667;28;20082;-69
2020/12/16 00:20:34;;;;;;;41.78;19.80;;;6.30;99.90;;;;;;4986757;28;20117;-67
2020/12/16 00:23:01;;;;;;;45.83;20.40;;;6.40;99.90;;;;;;4987275;28;20050;-67
2020/12/16 00:25:27;;;;;;;42.08;21.13;;;6.50;99.90;;;;;;4989434;28;20051;-67
2020/12/16 00:27:55;;;;;;;45.35;21.73;;;6.50;99.90;;;;;;4986325;28;20065;-64
2020/12/16 00:30:23;;;;;;;43.85;19.63;;;6.30;99.90;;;;;;4986823;28;21599;-65
2020/12/16 00:32:49;;;;;;;43.58;20.25;;;6.30;99.90;;;;;;4990492;28;20047;-64
2020/12/16 00:35:17;;;;;;;41.45;19.63;;;6.30;99.90;;;;;;4989213;28;20256;-64
2020/12/16 00:37:45;;;;;;;44.10;19.90;;;6.40;99.90;;;;;;4987443;28;20050;-64
2020/12/16 00:40:13;;;;;;;41.78;19.70;;;6.40;99.90;;;;;;4986318;28;20521;-64
2020/12/16 00:42:46;;;;;;;39.95;20.30;;;6.50;99.90;;;;;;4982116;28;20050;-64
2020/12/16 00:45:13;;;;;;;42.58;19.95;;;6.40;99.90;;;;;;4982158;28;20100;-64
2020/12/16 00:47:40;;;;;;;41.60;20.08;;;6.50;99.90;;;;;;4987299;28;20061;-64
2020/12/16 00:50:13;;;;;;;38.28;20.25;;;6.50;99.90;;;;;;4986516;28;20050;-64
2020/12/16 00:52:40;;;;;;;44.20;19.60;;;6.40;99.90;;;;;;4989426;28;20046;-64
2020/12/16 00:55:07;;;;;;;41.70;19.80;;;6.40;99.90;;;;;;4988319;28;20051;-64
2020/12/16 00:57:34;;;;;;;38.25;17.98;;;6.50;99.90;;;;;;4988837;28;20105;-64
2020/12/16 01:00:02;;;;;;;45.42;19.48;;;6.50;99.90;;;;;;4993099;28;20134;-64
2020/12/16 01:02:29;;;;;;;38.80;20.42;;;6.40;99.90;;;;;;4991858;28;20133;-64
2020/12/16 01:04:56;;;;;;;35.88;17.38;;;6.30;99.90;;;;;;4989118;28;20053;-64
2020/12/16 01:07:23;;;;;;;39.90;19.25;;;6.40;99.90;;;;;;4991970;28;20053;-64
2020/12/16 01:09:50;;;;;;;38.42;17.85;;;6.40;99.90;;;;;;4988710;28;20547;-64
2020/12/16 01:12:26;;;;;;;37.88;18.27;;;6.50;99.90;;;;;;4991151;28;20065;-64
2020/12/16 01:14:53;;;;;;;39.40;19.25;;;6.50;99.90;;;;;;4991023;28;20146;-64
2020/12/16 01:17:20;;;;;;;41.08;19.08;;;6.40;99.90;;;;;;4991771;28;20057;-64
2020/12/16 01:19:47;;;;;;;41.38;20.17;;;6.40;99.90;;;;;;4991888;28;20057;-64
2020/12/16 01:22:14;;;;;;;37.83;19.10;;;6.40;99.90;;;;;;4990549;28;20050;-64
2020/12/16 01:24:41;;;;;;;34.60;17.30;;;6.40;99.90;;;;;;4992453;28;20047;-64
2020/12/16 01:27:08;;;;;;;35.50;17.85;;;6.30;99.90;;;;;;4990639;28;20058;-64
2020/12/16 01:29:35;;;;;;;39.42;18.85;;;6.40;99.90;;;;;;4991990;28;20093;-64
2020/12/16 01:32:02;;;;;;;42.35;18.58;;;6.40;99.90;;;;;;4989779;28;20062;-64
2020/12/16 01:34:30;;;;;;;40.10;19.67;;;6.40;99.90;;;;;;4990148;28;20042;-64
2020/12/16 01:36:57;;;;;;;40.70;18.92;;;6.50;99.90;;;;;;4988191;28;20120;-67
2020/12/16 01:39:24;;;;;;;35.33;17.95;;;6.50;99.90;;;;;;4971903;28;20050;-67
2020/12/16 01:41:51;;;;;;;36.85;18.33;;;6.40;99.90;;;;;;4983877;28;20157;-66
2020/12/16 01:44:19;;;;;;;39.13;19.08;;;6.50;99.90;;;;;;4988906;28;20051;-67
2020/12/16 01:46:49;;;;;;;39.13;18.77;;;6.50;99.90;;;;;;4984676;28;20047;-68
2020/12/16 01:49:16;;;;;;;41.75;19.65;;;6.50;99.90;;;;;;4982439;28;20054;-67
2020/12/16 01:51:43;;;;;;;42.60;19.33;;;6.50;99.90;;;;;;4981398;28;20046;-66
2020/12/16 01:54:14;;;;;;;37.40;17.30;;;6.50;99.90;;;;;;4988991;28;20078;-69
2020/12/16 01:56:42;;;;;;;33.55;16.67;;;6.50;99.90;;;;;;4990715;28;20121;-67
2020/12/16 01:59:13;;;;;;;38.05;17.90;;;6.50;99.90;;;;;;4990624;28;20050;-67
2020/12/16 02:01:42;;;;;;;37.95;17.73;;;6.50;99.90;;;;;;4991169;28;20424;-67
2020/12/16 02:04:11;;;;;;;36.35;18.05;;;6.50;99.90;;;;;;4986890;28;20066;-68
2020/12/16 02:06:40;;;;;;;36.85;17.20;;;6.50;99.90;;;;;;4987230;28;20142;-67
2020/12/16 02:09:09;;;;;;;35.65;18.30;;;6.50;99.90;;;;;;4985559;28;20090;-67
2020/12/16 02:11:40;;;;;;;36.67;19.52;;;6.50;99.90;;;;;;4990129;28;20058;-66
2020/12/16 02:14:09;;;;;;;39.20;19.02;;;6.50;99.90;;;;;;4991300;28;20058;-67
2020/12/16 02:16:39;;;;;;;37.83;19.60;;;6.50;99.90;;;;;;4989821;28;20112;-67
2020/12/16 02:19:07;;;;;;;40.08;20.15;;;6.60;99.90;;;;;;4991281;28;20499;-66
2020/12/16 02:21:35;;;;;;;37.63;18.92;;;6.50;99.90;;;;;;4989513;28;20415;-67
2020/12/16 02:24:04;;;;;;;35.53;18.98;;;6.50;99.90;;;;;;4990524;28;20074;-66
2020/12/16 02:26:34;;;;;;;35.20;18.40;;;6.50;99.90;;;;;;4990733;28;20423;-68
2020/12/16 02:29:00;;;;;;;36.58;18.00;;;6.50;99.90;;;;;;4990199;28;20046;-67
2020/12/16 02:31:29;;;;;;;38.25;19.23;;;6.50;99.90;;;;;;4990632;28;20057;-68
2020/12/16 02:33:56;;;;;;;38.53;18.88;;;6.50;99.90;;;;;;4991912;28;20058;-66
2020/12/16 02:36:23;;;;;;;35.97;18.05;;;6.50;99.90;;;;;;4992058;28;20057;-66
2020/12/16 02:38:51;;;;;;;40.20;18.65;;;6.50;99.90;;;;;;4991135;28;20058;-67
2020/12/16 02:41:18;;;;;;;36.92;19.05;;;6.50;99.90;;;;;;4991002;28;20097;-67
2020/12/16 02:43:45;;;;;;;40.65;19.00;;;6.60;99.90;;;;;;4990935;28;20056;-67
2020/12/16 02:46:12;;;;;;;39.63;18.85;;;6.60;99.90;;;;;;4990095;28;20058;-67
2020/12/16 02:48:42;;;;;;;42.63;20.33;;;6.60;99.90;;;;;;4991343;28;20070;-69
2020/12/16 02:51:09;;;;;;;36.03;17.70;;;6.60;99.90;;;;;;4989604;28;20050;-67
2020/12/16 02:53:35;;;;;;;41.55;19.98;;;6.60;99.90;;;;;;4990811;28;20057;-69
2020/12/16 02:56:02;;;;;;;37.00;19.33;;;6.60;99.90;;;;;;4989629;28;20046;-67
2020/12/16 02:58:29;;;;;;;39.92;18.30;;;6.60;99.90;;;;;;4990142;28;20057;-67
2020/12/16 03:00:56;;;;;;;36.83;18.70;;;6.60;99.90;;;;;;4990086;28;20469;-68
2020/12/16 03:03:23;;;;;;;35.22;18.70;;;6.70;99.90;;;;;;4989555;28;20058;-67
2020/12/16 03:05:50;;;;;;;37.88;19.30;;;6.60;99.90;;;;;;4990748;28;20058;-67
2020/12/16 03:08:19;;;;;;;40.28;19.25;;;6.60;99.90;;;;;;4989431;28;20073;-66
2020/12/16 03:10:46;;;;;;;38.70;18.58;;;6.70;99.90;;;;;;4990026;28;20062;-68
2020/12/16 03:13:13;;;;;;;38.30;18.42;;;6.70;99.90;;;;;;4989237;28;20046;-66
2020/12/16 03:15:39;;;;;;;42.63;18.88;;;6.70;99.90;;;;;;4990234;28;20081;-66
2020/12/16 03:18:07;;;;;;;44.90;20.80;;;6.70;99.90;;;;;;4990442;28;20046;-68
2020/12/16 03:20:33;;;;;;;38.00;19.05;;;6.70;99.90;;;;;;4988686;28;20097;-67
2020/12/16 03:23:00;;;;;;;42.50;19.42;;;6.70;99.90;;;;;;4990047;28;20055;-67
2020/12/16 03:25:27;;;;;;;41.00;19.92;;;6.70;99.90;;;;;;4990219;28;20046;-67
2020/12/16 03:27:53;;;;;;;42.58;20.30;;;6.70;99.90;;;;;;4990028;28;20423;-67
2020/12/16 03:30:20;;;;;;;41.90;21.35;;;6.70;99.90;;;;;;4989784;28;20066;-68
2020/12/16 03:32:47;;;;;;;47.72;21.98;;;6.70;99.90;;;;;;4989506;28;20503;-66
2020/12/16 03:35:14;;;;;;;47.80;21.40;;;6.70;99.90;;;;;;4989781;28;20058;-67
2020/12/16 03:37:41;;;;;;;46.13;21.38;;;6.70;99.90;;;;;;4986787;28;20078;-67
2020/12/16 03:40:08;;;;;;;46.15;21.05;;;6.70;99.90;;;;;;4969967;28;20055;-67
2020/12/16 03:42:35;;;;;;;48.85;22.67;;;6.70;99.90;;;;;;4970846;28;20051;-68
2020/12/16 03:45:03;;;;;;;52.65;23.23;;;6.70;99.90;;;;;;4970329;28;20058;-67
2020/12/16 03:47:29;;;;;;;52.20;23.30;;;6.70;99.90;;;;;;4972406;28;20116;-67
2020/12/16 03:49:56;;;;;;;48.38;21.77;;;6.70;99.90;;;;;;4986104;28;20058;-67
2020/12/16 03:52:24;;;;;;;48.83;22.52;;;6.70;99.90;;;;;;4988921;28;20052;-67
2020/12/16 03:54:50;;;;;;;56.38;23.13;;;6.70;99.90;;;;;;4989856;28;20082;-67
2020/12/16 03:57:17;;;;;;;52.83;23.95;;;6.70;99.90;;;;;;4993637;28;20058;-67
2020/12/16 03:59:43;;;;;;;58.15;25.13;;;6.70;99.90;;;;;;4993741;28;20147;-67
2020/12/16 04:02:10;;;;;;;52.28;24.10;;;6.70;99.90;;;;;;4992175;28;20050;-66
2020/12/16 04:04:37;;;;;;;52.60;23.48;;;6.70;99.90;;;;;;4993712;28;20050;-69
2020/12/16 04:07:04;;;;;;;57.45;25.23;;;6.70;99.90;;;;;;4992656;28;20054;-67
2020/12/16 04:09:31;;;;;;;53.15;24.83;;;6.70;99.90;;;;;;4993227;28;20054;-66
2020/12/16 04:11:58;;;;;;;62.75;26.95;;;6.70;99.90;;;;;;4992934;28;20058;-67
2020/12/16 04:14:24;;;;;;;61.20;25.20;;;6.60;99.90;;;;;;4992748;28;20050;-66
2020/12/16 04:16:55;;;;;;;60.65;26.08;;;6.60;99.90;;;;;;4993445;28;20064;-69
2020/12/16 04:19:21;;;;;;;59.63;26.05;;;6.60;99.90;;;;;;4992408;28;20050;-69
2020/12/16 04:21:48;;;;;;;68.43;26.75;;;6.60;99.90;;;;;;4992965;28;20137;-67
2020/12/16 04:24:15;;;;;;;71.22;27.55;;;6.60;99.90;;;;;;4993624;28;20046;-67
2020/12/16 04:26:42;;;;;;;66.05;27.52;;;6.60;99.90;;;;;;4992822;28;20058;-67
2020/12/16 04:29:09;;;;;;;72.93;29.25;;;6.60;99.90;;;;;;4993872;28;20251;-66
2020/12/16 04:31:36;;;;;;;61.30;25.73;;;6.60;99.90;;;;;;4992149;28;20054;-67
2020/12/16 04:34:02;;;;;;;66.30;26.88;;;6.60;99.90;;;;;;4992986;28;20046;-67
2020/12/16 04:36:29;;;;;;;65.60;27.30;;;6.60;99.90;;;;;;4992665;28;20051;-67
2020/12/16 04:38:56;;;;;;;73.03;28.52;;;6.60;99.90;;;;;;4993431;28;20515;-66
2020/12/16 04:41:22;;;;;;;72.53;28.77;;;6.60;99.90;;;;;;4992561;28;20058;-67
2020/12/16 04:43:55;;;;;;;67.07;27.25;;;6.50;99.90;;;;;;4992234;28;20137;-67
2020/12/16 04:46:22;;;;;;;71.28;28.67;;;6.50;99.90;;;;;;4993180;28;20050;-66
2020/12/16 04:48:50;;;;;;;70.45;27.25;;;6.40;99.90;;;;;;4992524;28;20057;-67
2020/12/16 04:51:17;;;;;;;73.28;28.15;;;6.50;99.90;;;;;;4992048;28;20396;-67
2020/12/16 04:53:45;;;;;;;72.63;28.02;;;6.40;99.90;;;;;;4992713;28;20541;-69
2020/12/16 04:56:13;;;;;;;73.38;28.48;;;6.50;99.90;;;;;;4991670;28;20159;-66
2020/12/16 04:58:40;;;;;;;74.15;29.25;;;6.50;99.90;;;;;;4992894;28;20096;-67
2020/12/16 05:01:08;;;;;;;73.28;28.55;;;6.40;99.90;;;;;;4990985;28;20062;-67
2020/12/16 05:03:35;;;;;;;74.07;29.23;;;6.40;99.90;;;;;;4992684;28;20056;-66
2020/12/16 05:06:02;;;;;;;74.60;30.27;;;6.40;99.90;;;;;;4992389;28;20066;-69
2020/12/16 05:08:29;;;;;;;77.47;29.35;;;6.40;99.90;;;;;;4991858;28;20495;-67
2020/12/16 05:10:55;;;;;;;69.85;29.88;;;6.40;99.90;;;;;;4992442;28;20467;-66
2020/12/16 05:13:25;;;;;;;81.35;29.33;;;6.40;99.90;;;;;;4990811;28;20054;-66
2020/12/16 05:15:53;;;;;;;72.00;27.83;;;6.40;99.90;;;;;;4992471;28;20046;-67
2020/12/16 05:18:22;;;;;;;78.38;31.02;;;6.40;99.90;;;;;;4991722;28;20057;-66
2020/12/16 05:20:50;;;;;;;80.57;28.58;;;6.40;99.90;;;;;;4991467;28;20054;-69
2020/12/16 05:23:17;;;;;;;84.05;30.25;;;6.40;99.90;;;;;;4992160;28;20049;-68
2020/12/16 05:25:59;;;;;;;83.07;29.48;;;6.40;99.90;;;;;;4991431;28;20054;-67
2020/12/16 05:28:28;;;;;;;78.18;28.63;;;6.40;99.90;;;;;;4994716;28;20134;-66
2020/12/16 05:30:56;;;;;;;83.18;29.20;;;6.40;99.90;;;;;;4989142;28;20511;-67
2020/12/16 05:33:24;;;;;;;73.90;29.77;;;6.40;99.90;;;;;;4977085;28;20051;-67
2020/12/16 05:35:52;;;;;;;79.97;28.98;;;6.40;99.90;;;;;;4972434;28;20412;-68
2020/12/16 05:38:19;;;;;;;86.10;29.67;;;6.40;99.90;;;;;;4979224;28;20058;-67
2020/12/16 05:40:49;;;;;;;81.25;30.38;;;6.40;99.90;;;;;;4991053;28;20864;-67
2020/12/16 05:43:23;;;;;;;85.38;29.88;;;6.40;99.90;;;;;;4990562;28;20047;-66
2020/12/16 05:45:50;;;;;;;80.70;28.95;;;6.30;99.90;;;;;;4991527;28;20587;-66
2020/12/16 05:48:17;;;;;;;94.75;31.00;;;6.30;99.90;;;;;;4991109;28;20154;-67
2020/12/16 05:50:50;;;;;;;84.63;28.58;;;6.20;99.90;;;;;;4991285;28;20046;-66
2020/12/16 05:53:19;;;;;;;85.20;29.95;;;6.20;99.90;;;;;;4990886;28;20061;-68
2020/12/16 05:55:50;;;;;;;85.15;28.00;;;6.20;99.90;;;;;;4991085;28;20454;-66
2020/12/16 05:58:18;;;;;;;89.22;30.70;;;6.30;99.90;;;;;;4991640;28;20054;-66
2020/12/16 06:00:51;;;;;;;87.70;30.23;;;6.30;99.90;;;;;;4990090;28;20042;-66
2020/12/16 06:03:26;;;;;;;97.75;31.08;;;6.30;99.90;;;;;;4991404;28;20061;-69
2020/12/16 06:05:55;;;;;;;87.88;31.25;;;6.30;99.90;;;;;;4990661;28;20076;-66
2020/12/16 06:08:24;;;;;;;82.07;28.35;;;6.30;99.90;;;;;;4991297;28;20053;-66
2020/12/16 06:10:52;;;;;;;81.18;28.98;;;6.40;99.90;;;;;;4990286;28;20061;-66
2020/12/16 06:13:20;;;;;;;96.03;29.73;;;6.40;99.90;;;;;;4991115;28;20487;-66
2020/12/16 06:15:56;;;;;;;86.03;30.60;;;6.40;99.90;;;;;;4989207;28;20073;-66
2020/12/16 06:18:24;;;;;;;101.10;31.20;;;6.20;99.90;;;;;;4969971;28;20055;-66
2020/12/16 06:20:51;;;;;;;92.78;31.83;;;6.30;99.90;;;;;;4970772;28;20055;-66
2020/12/16 06:23:33;;;;;;;96.72;32.38;;;6.20;99.90;;;;;;4970698;28;20066;-69
2020/12/16 06:26:01;;;;;;;106.82;32.40;;;6.30;99.90;;;;;;4971657;28;20424;-69
2020/12/16 06:28:28;;;;;;;99.78;33.70;;;6.30;99.90;;;;;;4970831;28;20059;-67
2020/12/16 06:31:03;;;;;;;104.63;33.17;;;6.30;99.90;;;;;;4971326;28;20547;-67
2020/12/16 06:33:36;;;;;;;107.53;31.63;;;6.30;99.90;;;;;;4971511;28;20578;-66
2020/12/16 06:36:04;;;;;;;105.30;31.45;;;6.30;99.90;;;;;;4970597;28;20061;-67
2020/12/16 06:38:40;;;;;;;93.63;31.33;;;6.30;99.90;;;;;;4980338;28;20407;-66
2020/12/16 06:41:20;;;;;;;98.57;31.02;;;6.30;99.90;;;;;;4989408;28;20046;-66
2020/12/16 06:43:48;;;;;;;100.35;32.17;;;6.30;99.90;;;;;;4990829;28;20046;-66
2020/12/16 06:46:39;;;;;;;99.35;33.97;;;6.30;99.90;;;;;;4989660;28;20046;-67
2020/12/16 06:49:08;;;;;;;91.97;32.25;;;6.30;99.90;;;;;;4990935;28;20503;-66
2020/12/16 06:51:41;;;;;;;99.93;31.88;;;6.30;99.90;;;;;;4988964;28;20566;-67
2020/12/16 06:54:11;;;;;;;95.90;29.88;;;6.30;99.90;;;;;;4990833;28;20193;-68
2020/12/16 06:56:38;;;;;;;103.25;31.77;;;6.30;99.90;;;;;;4990012;28;20557;-68
2020/12/16 06:59:05;;;;;;;90.65;30.48;;;6.30;99.90;;;;;;4990298;28;20104;-67
2020/12/16 07:01:32;;;;;;;87.30;31.00;;;6.40;99.90;;;;;;4989991;28;20054;-66
2020/12/16 07:03:58;;;;;;;98.00;32.17;;;6.40;99.90;;;;;;4989640;28;20145;-69
2020/12/16 07:06:40;;;;;;;89.88;30.77;;;6.40;99.90;;;;;;4990660;28;20060;-66
2020/12/16 07:09:18;;;;;;;95.80;31.80;;;6.40;99.90;;;;;;4989705;28;20488;-68
2020/12/16 07:11:47;;;;;;;101.22;33.50;;;6.40;99.90;;;;;;4989982;28;20062;-67
2020/12/16 07:14:15;;;;;;;102.45;33.22;;;6.40;99.90;;;;;;4989863;28;20054;-67
2020/12/16 07:16:42;;;;;;;99.78;33.10;;;6.40;99.90;;;;;;4990200;28;20050;-66
2020/12/16 07:19:09;;;;;;;109.63;34.28;;;6.30;99.90;;;;;;4990514;28;20757;-66
2020/12/16 07:21:38;;;;;;;113.20;35.80;;;6.40;99.90;;;;;;4988776;28;20132;-66
2020/12/16 07:24:15;;;;;;;111.00;34.30;;;6.40;99.90;;;;;;4990704;28;20046;-67
2020/12/16 07:26:46;;;;;;;104.78;35.10;;;6.40;99.90;;;;;;4989660;28;20571;-67
2020/12/16 07:29:25;;;;;;;113.82;34.30;;;6.30;99.90;;;;;;4991421;28;20137;-67
2020/12/16 07:32:05;;;;;;;121.07;35.38;;;6.40;99.90;;;;;;4993042;28;20055;-67
2020/12/16 07:34:32;;;;;;;118.97;35.60;;;6.30;99.90;;;;;;4996527;28;20054;-67
2020/12/16 07:37:01;;;;;;;115.50;34.65;;;6.40;99.90;;;;;;4994812;28;20054;-68
2020/12/16 07:39:29;;;;;;;97.10;34.85;;;6.30;99.90;;;;;;4993351;28;20050;-67
2020/12/16 07:41:57;;;;;;;102.43;32.53;;;6.30;99.90;;;;;;4994279;28;20170;-68
2020/12/16 07:44:24;;;;;;;114.40;34.55;;;6.30;99.90;;;;;;4994313;28;20046;-67
2020/12/16 07:46:52;;;;;;;106.18;35.05;;;6.40;99.90;;;;;;4994119;28;20057;-67
2020/12/16 07:49:20;;;;;;;99.70;32.85;;;6.40;99.90;;;;;;4993613;28;20054;-67
2020/12/16 07:51:47;;;;;;;96.38;34.25;;;6.40;99.90;;;;;;4994310;28;20054;-68
2020/12/16 07:54:14;;;;;;;103.43;33.80;;;6.40;99.90;;;;;;4994420;28;20100;-69
2020/12/16 07:56:40;;;;;;;92.78;32.35;;;6.40;99.90;;;;;;4993972;28;20086;-66
2020/12/16 07:59:12;;;;;;;98.40;33.20;;;6.40;99.90;;;;;;4994348;28;20518;-66
2020/12/16 08:01:39;;;;;;;111.50;32.63;;;6.50;99.90;;;;;;4992702;28;20050;-66
2020/12/16 08:04:06;;;;;;;95.50;32.78;;;6.50;99.90;;;;;;4994319;28;20047;-67
2020/12/16 08:06:33;;;;;;;101.25;35.63;;;6.50;99.90;;;;;;4993218;28;20050;-66
2020/12/16 08:09:00;;;;;;;86.95;31.77;;;6.50;99.90;;;;;;4994084;28;20054;-68
2020/12/16 08:11:28;;;;;;;92.45;30.67;;;6.60;99.90;;;;;;4993723;28;20056;-66
2020/12/16 08:14:04;;;;;;;103.90;33.65;;;6.60;99.90;;;;;;4993348;28;20073;-67
2020/12/16 08:16:34;;;;;;;98.40;34.35;;;6.60;99.90;;;;;;4994572;28;20050;-67
2020/12/16 08:19:01;;;;;;;111.72;33.03;;;6.60;99.90;;;;;;4989814;28;20051;-67
2020/12/16 08:21:29;;;;;;;119.85;35.25;;;6.60;99.90;;;;;;5001636;28;20054;-67
2020/12/16 08:23:56;;;;;;;95.35;32.58;;;6.60;99.90;;;;;;4985376;28;20100;-66
2020/12/16 08:26:24;;;;;;;91.63;33.38;;;6.60;99.90;;;;;;4991266;28;20055;-66
2020/12/16 08:28:51;;;;;;;103.05;32.38;;;6.70;99.90;;;;;;4984547;28;20145;-67
2020/12/16 08:31:20;;;;;;;103.20;33.33;;;6.60;99.90;;;;;;4979708;28;20290;-66
2020/12/16 08:33:50;;;;;;;90.38;31.50;;;6.60;99.90;;;;;;4991876;28;20057;-66
2020/12/16 08:36:20;;;;;;;95.22;32.75;;;6.60;99.90;;;;;;4980265;28;20419;-69
2020/12/16 08:38:49;;;;;;;90.93;31.88;;;6.70;99.90;;;;;;4996201;28;20465;-66
2020/12/16 08:41:25;;;;;;;84.22;31.75;;;6.70;99.90;;;;;;4979302;28;20047;-66
2020/12/16 08:43:53;;;;;;;80.40;32.27;;;6.70;99.90;;;;;;4990501;28;20062;-66
2020/12/16 08:46:23;;;;;;;82.85;32.25;;;6.70;99.90;;;;;;4989138;28;20058;-66
2020/12/16 08:48:52;;;;;;;85.95;30.73;;;6.80;99.90;;;;;;4984639;28;20058;-67
2020/12/16 08:51:20;;;;;;;73.93;30.00;;;6.80;99.90;;;;;;4979911;28;20058;-68
2020/12/16 08:53:52;;;;;;;82.63;32.53;;;6.80;99.90;;;;;;4990374;28;20056;-67
2020/12/16 08:56:28;;;;;;;83.07;30.67;;;6.80;99.90;;;;;;4973598;28;20063;-68
2020/12/16 08:59:13;;;;;;;85.47;31.50;;;6.90;99.90;;;;;;4971646;28;20061;-72
2020/12/16 09:01:41;;;;;;;75.07;30.67;;;7.00;99.90;;;;;;4971473;28;20054;-67
2020/12/16 09:04:10;;;;;;;79.07;30.55;;;7.00;99.90;;;;;;4974641;28;20047;-68
2020/12/16 09:06:37;;;;;;;68.53;27.50;;;7.00;99.90;;;;;;4974258;28;20055;-67
2020/12/16 09:09:14;;;;;;;65.63;25.88;;;7.10;99.90;;;;;;4999596;28;20057;-71
2020/12/16 09:11:48;;;;;;;68.03;28.05;;;7.10;99.90;;;;;;5006885;28;20051;-68
2020/12/16 09:14:15;;;;;;;60.42;25.65;;;7.10;99.90;;;;;;5014092;28;20050;-70
2020/12/16 09:16:42;;;;;;;60.40;25.90;;;7.20;99.90;;;;;;4994201;28;20047;-70
2020/12/16 09:19:20;;;;;;;57.42;25.83;;;7.10;99.90;;;;;;4995517;28;20069;-70
2020/12/16 09:21:47;;;;;;;59.58;24.13;;;7.00;99.90;;;;;;4994650;28;20034;-70
2020/12/16 09:24:14;;;;;;;52.25;24.30;;;6.90;99.90;;;;;;4994434;28;20034;-70
2020/12/16 09:26:43;;;;;;;53.25;24.20;;;6.90;99.90;;;;;;4985023;28;20106;-67
2020/12/16 09:29:18;;;;;;;55.10;23.52;;;6.90;99.90;;;;;;4971614;28;20503;-69
2020/12/16 09:31:45;;;;;;;51.65;22.52;;;6.80;99.90;;;;;;4982294;28;20056;-68
2020/12/16 09:34:12;;;;;;;57.47;23.15;;;6.90;99.90;;;;;;4990913;28;20053;-67
2020/12/16 09:36:39;;;;;;;48.05;22.55;;;7.00;99.90;;;;;;4992230;28;20057;-67
2020/12/16 09:39:08;;;;;;;49.20;22.33;;;7.00;99.90;;;;;;4993842;28;20093;-67
2020/12/16 09:41:45;;;;;;;50.67;21.63;;;7.00;99.90;;;;;;4987305;28;20137;-68
2020/12/16 09:44:26;;;;;;;49.70;24.33;;;7.10;99.90;;;;;;4995642;28;20052;-71
2020/12/16 09:46:53;;;;;;;47.90;21.67;;;7.10;99.90;;;;;;4989007;28;20054;-67
2020/12/16 09:49:21;;;;;;;46.45;21.90;;;7.20;99.90;;;;;;4992258;28;20050;-66
2020/12/16 09:51:49;;;;;;;44.53;20.60;;;7.30;99.90;;;;;;4990827;28;20042;-69
2020/12/16 09:54:33;;;;;;;43.70;20.52;;;7.30;99.90;;;;;;4992120;28;20149;-68
2020/12/16 09:57:09;;;;;;;42.17;20.35;;;7.30;99.90;;;;;;4990252;28;20366;-68
2020/12/16 09:59:36;;;;;;;31.25;14.35;;;7.20;99.90;;;;;;4988942;28;20043;-66
2020/12/16 10:02:03;;;;;;;40.22;19.55;;;7.30;99.90;;;;;;4991733;28;20455;-67
2020/12/16 10:04:30;;;;;;;40.00;19.70;;;7.30;99.90;;;;;;4990971;28;20491;-67
2020/12/16 10:06:58;;;;;;;46.90;20.25;;;7.30;99.90;;;;;;4992009;28;20198;-68
2020/12/16 10:09:24;;;;;;;43.42;20.70;;;7.30;99.90;;;;;;4990443;28;20078;-67
2020/12/16 10:11:51;;;;;;;37.97;18.83;;;7.40;99.90;;;;;;4991498;28;20137;-66
2020/12/16 10:14:21;;;;;;;45.40;19.30;;;7.40;99.90;;;;;;4991569;28;20132;-68
2020/12/16 10:16:48;;;;;;;40.15;18.85;;;7.50;99.90;;;;;;4991858;28;20043;-67
2020/12/16 10:19:16;;;;;;;41.70;19.25;;;7.50;99.90;;;;;;4992549;28;20054;-67
2020/12/16 10:21:46;;;;;;;35.78;18.58;;;7.60;99.90;;;;;;4991312;28;20057;-68
2020/12/16 10:24:14;;;;;;;37.78;19.98;;;7.80;99.90;;;;;;4992905;28;20471;-67
2020/12/16 10:26:45;;;;;;;40.55;18.38;;;7.90;99.90;;;;;;4991823;28;20051;-67
2020/12/16 10:29:12;;;;;;;38.90;18.77;;;8.00;99.90;;;;;;4992181;28;20058;-66
2020/12/16 10:31:39;;;;;;;40.03;18.20;;;8.00;99.90;;;;;;4988151;28;20073;-69
2020/12/16 10:34:08;;;;;;;39.97;19.38;;;8.00;99.90;;;;;;4990241;28;20061;-70
2020/12/16 10:36:35;;;;;;;34.85;17.55;;;8.10;99.90;;;;;;4983650;28;20046;-69
2020/12/16 10:39:02;;;;;;;37.25;18.45;;;8.20;99.90;;;;;;4989212;28;20051;-67
2020/12/16 10:41:30;;;;;;;36.63;19.08;;;8.10;99.90;;;;;;4988691;28;20423;-70
2020/12/16 10:43:57;;;;;;;40.20;19.63;;;8.20;99.90;;;;;;4991114;28;20059;-67
2020/12/16 10:46:24;;;;;;;38.78;19.45;;;8.30;99.90;;;;;;4988120;28;20058;-68
2020/12/16 10:48:51;;;;;;;38.20;20.02;;;8.40;99.90;;;;;;4979487;28;20062;-67
2020/12/16 10:51:33;;;;;;;38.53;19.70;;;8.50;99.90;;;;;;4957063;28;20057;-67
2020/12/16 10:53:59;;;;;;;35.10;18.65;;;8.50;99.90;;;;;;4990755;28;20046;-69
2020/12/16 10:56:30;;;;;;;39.22;19.77;;;8.50;99.90;;;;;;4990413;28;20046;-68
2020/12/16 10:58:57;;;;;;;34.60;17.70;;;8.60;99.90;;;;;;4990274;28;20113;-67
2020/12/16 11:01:25;;;;;;;37.22;17.85;;;8.80;99.90;;;;;;4989907;28;20096;-67
2020/12/16 11:03:52;;;;;;;34.00;17.63;;;8.80;99.90;;;;;;4993066;28;20053;-68
2020/12/16 11:06:19;;;;;;;34.83;16.95;;;8.80;99.90;;;;;;4990240;28;20050;-67
2020/12/16 11:08:55;;;;;;;34.92;17.45;;;8.70;99.90;;;;;;4990253;28;20748;-70
2020/12/16 11:11:25;;;;;;;31.33;16.70;;;8.90;99.90;;;;;;4985816;28;20054;-70
2020/12/16 11:13:52;;;;;;;34.58;17.95;;;8.90;99.90;;;;;;4989086;28;20523;-67
2020/12/16 11:16:19;;;;;;;31.00;16.70;;;9.00;99.90;;;;;;4992615;28;20054;-68
2020/12/16 11:18:47;;;;;;;36.75;17.10;;;9.10;99.90;;;;;;4989932;28;20301;-68
2020/12/16 11:21:14;;;;;;;30.42;15.77;;;9.20;99.90;;;;;;4989822;28;20484;-68
2020/12/16 11:23:41;;;;;;;29.80;15.38;;;9.30;99.90;;;;;;4989852;28;20406;-67
2020/12/16 11:26:07;;;;;;;29.50;15.60;;;9.10;99.90;;;;;;4989906;28;20141;-66
2020/12/16 11:28:37;;;;;;;30.73;16.60;;;9.20;99.90;;;;;;4987065;28;20066;-70
2020/12/16 11:31:04;;;;;;;29.15;15.60;;;9.20;99.90;;;;;;4989419;28;20097;-68
2020/12/16 11:33:30;;;;;;;32.20;17.08;;;9.20;99.90;;;;;;4990385;28;20140;-68
2020/12/16 11:35:58;;;;;;;31.13;16.00;;;9.10;99.90;;;;;;4989951;28;20057;-67
2020/12/16 11:38:25;;;;;;;32.42;17.65;;;9.20;99.90;;;;;;4989016;28;21015;-70
2020/12/16 11:40:52;;;;;;;32.70;16.90;;;9.30;99.90;;;;;;4988481;28;20123;-70
2020/12/16 11:43:19;;;;;;;30.63;15.70;;;9.30;99.90;;;;;;4989339;28;20062;-69
2020/12/16 11:45:45;;;;;;;29.92;15.88;;;9.50;99.90;;;;;;4991017;28;20057;-67
2020/12/16 11:48:12;;;;;;;29.75;16.27;;;9.60;99.90;;;;;;4988638;28;20086;-68
2020/12/16 11:50:39;;;;;;;34.08;16.80;;;9.60;99.90;;;;;;4991425;28;20092;-70
2020/12/16 11:53:09;;;;;;;32.38;17.02;;;9.60;99.90;;;;;;4988777;28;20046;-68
2020/12/16 11:55:36;;;;;;;29.98;16.52;;;9.70;99.90;;;;;;4988141;28;20054;-67
2020/12/16 11:58:02;;;;;;;30.25;15.20;;;9.90;99.90;;;;;;4990988;28;20057;-67
2020/12/16 12:00:29;;;;;;;30.10;16.25;;;10.10;99.90;;;;;;4990048;28;20552;-69
2020/12/16 12:02:56;;;;;;;34.47;16.92;;;10.20;99.90;;;;;;4990208;28;20058;-67
2020/12/16 12:05:23;;;;;;;32.40;15.65;;;10.70;99.90;;;;;;4987357;28;20050;-67
2020/12/16 12:07:50;;;;;;;27.08;15.90;;;11.40;99.90;;;;;;4990347;28;20450;-68
2020/12/16 12:10:17;;;;;;;26.15;14.80;;;12.00;99.90;;;;;;4984171;28;20050;-69
2020/12/16 12:12:44;;;;;;;31.00;15.15;;;12.40;99.90;;;;;;4988573;28;20089;-69
2020/12/16 12:15:11;;;;;;;26.05;14.63;;;12.20;99.90;;;;;;4989944;28;20435;-68
2020/12/16 12:17:38;;;;;;;28.98;16.27;;;12.40;99.90;;;;;;4990209;28;20410;-68
2020/12/16 12:20:05;;;;;;;31.77;16.33;;;12.80;99.90;;;;;;4990066;28;20046;-68
2020/12/16 12:22:33;;;;;;;25.73;14.57;;;13.00;99.90;;;;;;4991113;28;20423;-68
2020/12/16 12:24:59;;;;;;;27.13;15.48;;;13.00;99.90;;;;;;4993902;28;20054;-71
2020/12/16 12:27:27;;;;;;;27.52;14.85;;;13.10;99.90;;;;;;4990957;28;20073;-68
2020/12/16 12:29:54;;;;;;;26.50;15.45;;;13.80;99.90;;;;;;4989633;28;20057;-68
2020/12/16 12:32:21;;;;;;;26.75;13.80;;;13.90;99.90;;;;;;4993700;28;20078;-68
2020/12/16 12:34:48;;;;;;;27.38;14.52;;;14.00;99.90;;;;;;4988428;28;20049;-67
2020/12/16 12:37:15;;;;;;;24.88;13.57;;;14.70;99.90;;;;;;4994135;28;20471;-68
2020/12/16 12:39:42;;;;;;;24.33;13.82;;;14.10;99.90;;;;;;4993979;28;20046;-68
2020/12/16 12:42:08;;;;;;;24.77;14.27;;;14.90;99.90;;;;;;4991512;28;20050;-71